KMSY

Louis Armstrong New Orleans International Airport

New Orleans, Louisiana, USA
KMSY 141721Z 1418/1524 25010G20KT P6SM BKN030 BKN040 BKN120 FM150600 25011G23KT P6SM OVC025 TEMPO 1508/1512 OVC015 FM151200 27010KT P6SM OVC018 FM151900 28011G21KT P6SM BKN040
Issued Valid From Valid To
Dec-14 @ 17:21 UTC
(4 hours ago)
Dec-14 @ 18:00 UTC
(4 hours ago)
Dec-16 @ 00:00 UTC
(-1 days ago)
Dec-14 @ 18:00 to Dec-15 @ 06:00
KMSY 141721Z 1418/1524 25010G20KT P6SM BKN030 BKN040 BKN120
Wind Visibility Clouds
250° at 10 knots
 Gusting to 20 knots
Greater than 6 miles
  • Broken at 3,000' AGL
  • Broken at 4,000' AGL
  • Broken at 12,000' AGL
From Dec-15 @ 06:00 to Dec-15 @ 12:00
FM150600 25011G23KT P6SM OVC025
Wind Visibility Clouds
250° at 11 knots
 Gusting to 23 knots
Greater than 6 miles
  • Overcast at 2,500' AGL
Temporary Dec-15 @ 08:00 to Dec-15 @ 12:00
TEMPO 1508/1512 OVC015
Clouds
  • Overcast at 1,500' AGL
From Dec-15 @ 12:00 to Dec-15 @ 19:00
FM151200 27010KT P6SM OVC018
Wind Visibility Clouds
270° at 10 knots Greater than 6 miles
  • Overcast at 1,800' AGL
From Dec-15 @ 19:00 to Dec-16 @ 00:00
FM151900 28011G21KT P6SM BKN040
Wind Visibility Clouds
280° at 11 knots
 Gusting to 21 knots
Greater than 6 miles
  • Broken at 4,000' AGL
KMSY 141721Z 1418/1524 25010G20KT P6SM BKN030 BKN040 BKN120 FM150600 25011G23KT P6SM OVC025 TEMPO 1508/1512 OVC015 FM151200 27010KT P6SM OVC018 FM151900 28011G21KT P6SM BKN040
Issued Dec-14 @ 17:21 UTC
(4 hours ago)
Valid From Dec-14 @ 18:00 UTC
(4 hours ago)
Valid To Dec-16 @ 00:00 UTC
(-1 days ago)
Dec-14 @ 18:00 - Dec-15 @ 06:00
Wind Visibility
250° at 10 knots
 Gusting to 20 knots
Greater than 6 miles
Clouds
  • Broken at 3,000' AGL
  • Broken at 4,000' AGL
  • Broken at 12,000' AGL
From Dec-15 @ 06:00 - Dec-15 @ 12:00
Wind Visibility
250° at 11 knots
 Gusting to 23 knots
Greater than 6 miles
Clouds
  • Overcast at 2,500' AGL
Temporary Dec-15 @ 08:00 - Dec-15 @ 12:00
Clouds
  • Overcast at 1,500' AGL
From Dec-15 @ 12:00 - Dec-15 @ 19:00
Wind Visibility
270° at 10 knots Greater than 6 miles
Clouds
  • Overcast at 1,800' AGL
From Dec-15 @ 19:00 - Dec-16 @ 00:00
Wind Visibility
280° at 11 knots
 Gusting to 21 knots
Greater than 6 miles
Clouds
  • Broken at 4,000' AGL